Shaw Air Force Base
KSSC : now visible

Airfield :











YOU CAN JOIN US ON...

 
LOGIN :

Register | Disclaimer

   EN    FR    IT 

 









Legend :    VFR   Marginal VFR   IFR   Intensive IFR   Very Intensive IFR
Visi :
Ceiling :
>= 8 km
>= 3000ft
5 to 8 km
1000 to 3000 ft
1500m to 5 km
500 to 1000 ft
800 to 1500m
200 to 500 ft
< 800m
< 200 ft
Symbols :   Thunderstorms  Fog  Heavy snow  Heavy precipitations  Wind > 20 kt






- Airport Elevation : 241 ft


KSSC - Shaw Air Force Base

CURRENT METAR :
  • 250656Z AUTO 08003KT 10SM OVC011 21/20 A3006 RMK AO2 CIG 010 RWY04 SLP179 T02070198 $

EXPIRED METARs :
  • 250626Z AUTO 06004KT 10SM BKN011 BKN130 21/20 A3006 RMK AO2 CIG 011V130 SLP179 $
  • 250556Z AUTO 05004KT 10SM FEW015 SCT120 SCT220 21/20 A3008 RMK AO2 SLP185 60040 T02050198 10217 20205 55005 $
  • 250456Z AUTO 06003KT 10SM BKN160 21/21 A3008 RMK AO2 SLP185 T02130206 403340207 $

TAF AMD TAF KSSC
Valid from the 24 at 23:00 until the 26 at 02:00 UTC


242315Z 2423/2602 VRB06KT 9999 VCTS SCT060CB BKN250 QNH2995INS
TEMPO 2423/2424 9000 -TSRA BKN050CB
BECMG 2500/2501 VRB06KT 9999 NSW SCT040 BKN250 QNH2995INS
BECMG 2509/2510 10006KT 6000 BR SCT008 BKN015 QNH3002INS
BECMG 2512/2513 10006KT 9999 NSW SCT020 QNH3004INS
TEMPO 2519/2523 VRB10G15KT 8000 -TSRA BKN020CB TX24/2423Z TN21/2510Z LAST NO AMDS AFT 2423 NEXT 2607
KZJX FIR / North America



MET'MAP, your aeronautical weather chart ! - Copyright ORBIFLY December 2007 - Disclaimer

ORBIFLY MET'MAP TEAM :

Programming & Development : Alexandra Zaïnal
Concept & original design : Baudouin d'Aumeries
Assistance for programming : Marc-Olivier Méhu
Technical & hardware support : Manuel Goepfert

Contact : metmap@orbifly.com




SOURCES & CREDITS :

   NOAA       Earth
Advisory